Search for airport 
image banner adimage banner adimage banner ad
image banner ad

KCXY - Capital City

Located in Harrisburg, United States

ICAO - CXY, IATA - HAR

Data provided by Airmate  

General information

Coordinates: N40°13'2" W76°51'5"
Elevation is 347 feet MSL.
Magnetic variation is -11° East
View others Airports in Pennsylvania

Operational data

Special qualification required
Current time UTC:
Current local time:
Weather
METAR: KCXY 091656Z 12005KT 6SM -RA BKN042 OVC075 09/05 A3003 RMK AO2 SLP171 P0004 T00890050 $
View NOTAMs / SUP AIP / TFR affecting this airport [VIEW]
Communications frequencies: [VIEW]

Runways:

RWY identifierQFULength (ft)Width (ft)SurfaceLDA (ft)
0871°5000150ASPH
26251°5000150ASPH
12117°3778100ASPH
30297°3778100ASPH

Airport contact information

Address: Harrisburg United States

Other aviation service providers

Flight schools

Cargill Aeronautical Academy & Service Center

Cargill Aeronautical Academy & Service Center

Satellite view of KCXY